sensor_id;sensor_type;location;lat;lon;timestamp;pressure;altitude;pressure_sealevel;temperature;humidity
60307;BME280;46155;52.364;6.580;2023-02-14T04:02:34;103172.50;;;1.35;100.00
60307;BME280;46155;52.364;6.580;2023-02-14T04:05:04;103170.09;;;1.24;100.00
60307;BME280;46155;52.364;6.580;2023-02-14T04:07:43;103172.81;;;1.31;100.00
60307;BME280;46155;52.364;6.580;2023-02-14T04:10:08;103181.53;;;1.32;100.00
60307;BME280;46155;52.364;6.580;2023-02-14T04:12:34;103173.63;;;1.37;100.00
60307;BME280;46155;52.364;6.580;2023-02-14T04:14:59;103176.09;;;1.43;100.00
60307;BME280;46155;52.364;6.580;2023-02-14T04:17:24;103175.28;;;1.50;100.00
60307;BME280;46155;52.364;6.580;2023-02-14T04:20:09;103174.25;;;1.55;100.00
60307;BME280;46155;52.364;6.580;2023-02-14T04:22:34;103172.78;;;1.57;100.00
60307;BME280;46155;52.364;6.580;2023-02-14T04:24:59;103177.66;;;1.61;100.00
60307;BME280;46155;52.364;6.580;2023-02-14T04:27:25;103181.94;;;1.61;100.00
60307;BME280;46155;52.364;6.580;2023-02-14T04:29:50;103180.88;;;1.66;100.00
60307;BME280;46155;52.364;6.580;2023-02-14T04:32:20;103181.31;;;1.69;100.00
60307;BME280;46155;52.364;6.580;2023-02-14T04:34:47;103174.66;;;1.71;100.00
60307;BME280;46155;52.364;6.580;2023-02-14T04:37:13;103172.28;;;1.72;100.00
60307;BME280;46155;52.364;6.580;2023-02-14T04:39:39;103176.72;;;1.74;100.00
60307;BME280;46155;52.364;6.580;2023-02-14T04:42:05;103164.50;;;1.72;100.00
60307;BME280;46155;52.364;6.580;2023-02-14T04:44:30;103161.19;;;1.74;100.00
60307;BME280;46155;52.364;6.580;2023-02-14T04:46:57;103173.44;;;1.75;100.00
60307;BME280;46155;52.364;6.580;2023-02-14T04:49:23;103170.84;;;1.75;100.00
60307;BME280;46155;52.364;6.580;2023-02-14T04:51:48;103164.91;;;1.76;100.00
60307;BME280;46155;52.364;6.580;2023-02-14T04:54:14;103157.56;;;1.92;100.00
60307;BME280;46155;52.364;6.580;2023-02-14T04:56:39;103164.38;;;1.91;100.00
60307;BME280;46155;52.364;6.580;2023-02-14T04:59:04;103158.59;;;1.86;100.00
60307;BME280;46155;52.364;6.580;2023-02-14T05:01:30;103151.25;;;1.77;100.00
60307;BME280;46155;52.364;6.580;2023-02-14T05:03:55;103156.53;;;1.71;100.00
60307;BME280;46155;52.364;6.580;2023-02-14T05:06:21;103150.53;;;1.65;100.00
60307;BME280;46155;52.364;6.580;2023-02-14T05:08:46;103155.84;;;1.59;100.00
60307;BME280;46155;52.364;6.580;2023-02-14T05:11:12;103148.78;;;1.58;100.00
60307;BME280;46155;52.364;6.580;2023-02-14T05:13:37;103154.69;;;1.57;100.00
60307;BME280;46155;52.364;6.580;2023-02-14T05:16:02;103152.41;;;1.53;100.00
60307;BME280;46155;52.364;6.580;2023-02-14T05:18:28;103160.06;;;1.59;100.00
60307;BME280;46155;52.364;6.580;2023-02-14T05:20:53;103154.88;;;1.59;100.00
60307;BME280;46155;52.364;6.580;2023-02-14T05:23:20;103155.63;;;1.58;100.00
60307;BME280;46155;52.364;6.580;2023-02-14T05:25:49;103148.78;;;1.58;100.00
60307;BME280;46155;52.364;6.580;2023-02-14T05:28:15;103151.69;;;1.54;100.00
60307;BME280;46155;52.364;6.580;2023-02-14T05:30:41;103143.72;;;1.52;100.00
60307;BME280;46155;52.364;6.580;2023-02-14T05:33:06;103150.34;;;1.50;100.00
60307;BME280;46155;52.364;6.580;2023-02-14T05:35:32;103149.41;;;1.50;100.00
60307;BME280;46155;52.364;6.580;2023-02-14T05:37:57;103151.47;;;1.52;100.00
60307;BME280;46155;52.364;6.580;2023-02-14T05:40:23;103147.22;;;1.53;100.00
60307;BME280;46155;52.364;6.580;2023-02-14T05:42:48;103144.44;;;1.51;100.00
60307;BME280;46155;52.364;6.580;2023-02-14T05:45:15;103150.66;;;1.46;100.00
60307;BME280;46155;52.364;6.580;2023-02-14T05:47:40;103145.69;;;1.35;100.00
60307;BME280;46155;52.364;6.580;2023-02-14T05:50:06;103139.34;;;1.33;100.00
60307;BME280;46155;52.364;6.580;2023-02-14T05:52:32;103141.34;;;1.28;100.00
60307;BME280;46155;52.364;6.580;2023-02-14T05:54:57;103136.56;;;1.18;100.00
60307;BME280;46155;52.364;6.580;2023-02-14T05:57:22;103129.41;;;1.10;100.00
60307;BME280;46155;52.364;6.580;2023-02-14T05:59:48;103139.66;;;1.16;100.00
60307;BME280;46155;52.364;6.580;2023-02-14T06:02:13;103140.06;;;1.19;100.00
60307;BME280;46155;52.364;6.580;2023-02-14T06:04:40;103132.00;;;1.23;100.00
60307;BME280;46155;52.364;6.580;2023-02-14T06:07:05;103136.56;;;1.31;100.00
60307;BME280;46155;52.364;6.580;2023-02-14T06:09:30;103140.22;;;1.39;100.00
60307;BME280;46155;52.364;6.580;2023-02-14T06:11:56;103135.63;;;1.44;100.00
60307;BME280;46155;52.364;6.580;2023-02-14T06:14:21;103139.34;;;1.46;100.00
60307;BME280;46155;52.364;6.580;2023-02-14T06:16:47;103148.06;;;1.46;100.00
60307;BME280;46155;52.364;6.580;2023-02-14T06:19:12;103130.78;;;1.40;100.00
60307;BME280;46155;52.364;6.580;2023-02-14T06:21:37;103148.91;;;1.40;100.00
60307;BME280;46155;52.364;6.580;2023-02-14T06:24:03;103142.25;;;1.29;100.00
60307;BME280;46155;52.364;6.580;2023-02-14T06:26:28;103138.03;;;1.29;100.00
60307;BME280;46155;52.364;6.580;2023-02-14T06:28:55;103148.47;;;1.36;100.00
60307;BME280;46155;52.364;6.580;2023-02-14T06:31:20;103147.75;;;1.37;100.00
60307;BME280;46155;52.364;6.580;2023-02-14T06:33:46;103155.19;;;1.42;100.00
60307;BME280;46155;52.364;6.580;2023-02-14T06:36:11;103148.59;;;1.44;100.00
60307;BME280;46155;52.364;6.580;2023-02-14T06:38:37;103150.47;;;1.45;100.00
60307;BME280;46155;52.364;6.580;2023-02-14T06:41:06;103154.88;;;1.46;100.00
60307;BME280;46155;52.364;6.580;2023-02-14T06:43:32;103151.78;;;1.61;100.00
60307;BME280;46155;52.364;6.580;2023-02-14T06:45:57;103147.66;;;1.69;100.00
60307;BME280;46155;52.364;6.580;2023-02-14T06:48:23;103157.44;;;1.71;100.00
60307;BME280;46155;52.364;6.580;2023-02-14T06:50:48;103148.41;;;1.88;100.00
60307;BME280;46155;52.364;6.580;2023-02-14T06:53:14;103154.94;;;3.25;100.00
60307;BME280;46155;52.364;6.580;2023-02-14T06:55:39;103157.69;;;3.19;100.00
60307;BME280;46155;52.364;6.580;2023-02-14T06:58:04;103147.09;;;2.98;100.00
60307;BME280;46155;52.364;6.580;2023-02-14T07:00:29;103161.91;;;2.71;100.00
60307;BME280;46155;52.364;6.580;2023-02-14T07:02:55;103167.16;;;2.38;100.00
60307;BME280;46155;52.364;6.580;2023-02-14T07:05:21;103158.41;;;2.18;100.00
60307;BME280;46155;52.364;6.580;2023-02-14T07:07:46;103163.00;;;2.00;100.00
60307;BME280;46155;52.364;6.580;2023-02-14T07:10:12;103163.03;;;1.87;100.00
60307;BME280;46155;52.364;6.580;2023-02-14T07:12:37;103150.59;;;1.85;100.00
60307;BME280;46155;52.364;6.580;2023-02-14T07:15:05;103161.38;;;1.88;100.00
60307;BME280;46155;52.364;6.580;2023-02-14T07:17:30;103163.75;;;1.86;100.00
60307;BME280;46155;52.364;6.580;2023-02-14T07:19:56;103157.03;;;1.81;100.00
60307;BME280;46155;52.364;6.580;2023-02-14T07:22:21;103162.66;;;1.84;100.00
60307;BME280;46155;52.364;6.580;2023-02-14T07:24:46;103163.97;;;1.88;100.00
60307;BME280;46155;52.364;6.580;2023-02-14T07:27:12;103159.94;;;1.90;100.00
60307;BME280;46155;52.364;6.580;2023-02-14T07:29:37;103163.97;;;1.88;100.00
60307;BME280;46155;52.364;6.580;2023-02-14T07:32:02;103165.53;;;1.93;100.00
60307;BME280;46155;52.364;6.580;2023-02-14T07:34:28;103160.22;;;1.99;100.00
60307;BME280;46155;52.364;6.580;2023-02-14T07:36:53;103167.97;;;2.12;100.00
60307;BME280;46155;52.364;6.580;2023-02-14T07:39:18;103170.50;;;2.24;100.00
60307;BME280;46155;52.364;6.580;2023-02-14T07:41:44;103167.16;;;2.38;100.00
60307;BME280;46155;52.364;6.580;2023-02-14T07:44:09;103157.25;;;2.49;100.00
60307;BME280;46155;52.364;6.580;2023-02-14T07:46:35;103175.00;;;2.66;100.00
60307;BME280;46155;52.364;6.580;2023-02-14T07:49:00;103172.53;;;2.80;100.00
60307;BME280;46155;52.364;6.580;2023-02-14T07:51:25;103168.44;;;2.95;100.00
60307;BME280;46155;52.364;6.580;2023-02-14T07:53:51;103159.22;;;3.04;100.00
60307;BME280;46155;52.364;6.580;2023-02-14T07:56:16;103164.84;;;3.15;100.00
60307;BME280;46155;52.364;6.580;2023-02-14T07:58:41;103169.81;;;3.33;100.00
60307;BME280;46155;52.364;6.580;2023-02-14T08:01:07;103172.66;;;3.42;100.00
60307;BME280;46155;52.364;6.580;2023-02-14T08:03:32;103161.97;;;3.53;100.00
60307;BME280;46155;52.364;6.580;2023-02-14T08:05:58;103168.50;;;3.64;100.00
60307;BME280;46155;52.364;6.580;2023-02-14T08:08:25;103164.88;;;3.76;100.00
60307;BME280;46155;52.364;6.580;2023-02-14T08:10:50;103157.47;;;3.87;100.00
60307;BME280;46155;52.364;6.580;2023-02-14T08:13:16;103166.47;;;4.03;100.00
60307;BME280;46155;52.364;6.580;2023-02-14T08:15:41;103169.47;;;4.13;100.00
60307;BME280;46155;52.364;6.580;2023-02-14T08:18:25;103176.75;;;4.23;100.00
60307;BME280;46155;52.364;6.580;2023-02-14T08:20:51;103163.22;;;4.33;100.00
60307;BME280;46155;52.364;6.580;2023-02-14T08:23:17;103172.34;;;4.44;100.00
60307;BME280;46155;52.364;6.580;2023-02-14T08:25:43;103164.00;;;4.54;100.00
60307;BME280;46155;52.364;6.580;2023-02-14T08:28:09;103177.59;;;4.73;100.00
60307;BME280;46155;52.364;6.580;2023-02-14T08:30:37;103164.75;;;4.74;100.00
60307;BME280;46155;52.364;6.580;2023-02-14T08:33:03;103174.63;;;4.91;100.00
60307;BME280;46155;52.364;6.580;2023-02-14T08:35:29;103168.50;;;5.05;100.00
60307;BME280;46155;52.364;6.580;2023-02-14T08:37:54;103154.56;;;5.12;100.00
60307;BME280;46155;52.364;6.580;2023-02-14T08:40:19;103167.19;;;5.23;100.00
60307;BME280;46155;52.364;6.580;2023-02-14T08:42:45;103156.56;;;5.29;100.00
60307;BME280;46155;52.364;6.580;2023-02-14T08:45:10;103168.06;;;5.45;100.00
60307;BME280;46155;52.364;6.580;2023-02-14T08:47:36;103155.78;;;5.51;100.00
60307;BME280;46155;52.364;6.580;2023-02-14T08:50:04;103166.75;;;5.56;100.00
60307;BME280;46155;52.364;6.580;2023-02-14T08:52:31;103166.91;;;5.65;100.00
60307;BME280;46155;52.364;6.580;2023-02-14T08:54:56;103163.53;;;5.73;100.00
60307;BME280;46155;52.364;6.580;2023-02-14T08:57:22;103168.72;;;5.80;100.00
60307;BME280;46155;52.364;6.580;2023-02-14T08:59:47;103172.78;;;5.93;100.00
60307;BME280;46155;52.364;6.580;2023-02-14T09:02:13;103172.19;;;5.95;100.00
60307;BME280;46155;52.364;6.580;2023-02-14T09:04:40;103165.09;;;6.09;100.00
60307;BME280;46155;52.364;6.580;2023-02-14T09:07:05;103177.13;;;6.23;100.00
60307;BME280;46155;52.364;6.580;2023-02-14T09:09:31;103162.41;;;6.23;100.00
60307;BME280;46155;52.364;6.580;2023-02-14T09:11:56;103171.13;;;6.31;100.00
60307;BME280;46155;52.364;6.580;2023-02-14T09:14:22;103171.66;;;6.35;100.00
60307;BME280;46155;52.364;6.580;2023-02-14T09:16:49;103163.41;;;6.47;100.00
60307;BME280;46155;52.364;6.580;2023-02-14T09:19:14;103163.88;;;6.59;100.00
60307;BME280;46155;52.364;6.580;2023-02-14T09:21:39;103150.75;;;6.66;100.00
60307;BME280;46155;52.364;6.580;2023-02-14T09:24:05;103154.03;;;6.79;100.00
60307;BME280;46155;52.364;6.580;2023-02-14T09:26:30;103151.69;;;6.89;100.00
60307;BME280;46155;52.364;6.580;2023-02-14T09:28:57;103146.75;;;7.00;100.00
60307;BME280;46155;52.364;6.580;2023-02-14T09:31:24;103157.03;;;6.98;100.00
60307;BME280;46155;52.364;6.580;2023-02-14T09:33:50;103155.28;;;7.06;100.00
60307;BME280;46155;52.364;6.580;2023-02-14T09:36:33;103154.03;;;7.18;100.00
60307;BME280;46155;52.364;6.580;2023-02-14T09:39:17;103148.50;;;7.31;99.90
60307;BME280;46155;52.364;6.580;2023-02-14T09:42:38;103150.38;;;7.48;100.00
60307;BME280;46155;52.364;6.580;2023-02-14T09:44:58;103150.28;;;7.55;98.27
60307;BME280;46155;52.364;6.580;2023-02-14T09:47:40;103147.66;;;7.55;98.15
60307;BME280;46155;52.364;6.580;2023-02-14T09:50:28;103140.44;;;7.69;98.93
60307;BME280;46155;52.364;6.580;2023-02-14T09:52:57;103129.81;;;7.83;98.86
60307;BME280;46155;52.364;6.580;2023-02-14T09:55:26;103146.31;;;8.07;98.52
60307;BME280;46155;52.364;6.580;2023-02-14T10:00:37;103144.09;;;8.19;96.48
60307;BME280;46155;52.364;6.580;2023-02-14T10:05:52;103130.16;;;8.52;96.30
60307;BME280;46155;52.364;6.580;2023-02-14T10:11:12;103130.03;;;8.84;95.34
60307;BME280;46155;52.364;6.580;2023-02-14T10:13:58;103131.66;;;8.99;95.29
60307;BME280;46155;52.364;6.580;2023-02-14T10:19:17;103133.53;;;9.09;91.87
60307;BME280;46155;52.364;6.580;2023-02-14T10:21:43;103131.06;;;9.10;91.55
60307;BME280;46155;52.364;6.580;2023-02-14T10:24:26;103132.31;;;9.14;92.34
60307;BME280;46155;52.364;6.580;2023-02-14T10:27:00;103121.81;;;9.14;91.83
60307;BME280;46155;52.364;6.580;2023-02-14T10:29:27;103121.22;;;9.25;90.69
60307;BME280;46155;52.364;6.580;2023-02-14T10:32:01;103131.72;;;9.25;90.36
60307;BME280;46155;52.364;6.580;2023-02-14T10:37:03;103127.91;;;9.39;90.53
60307;BME280;46155;52.364;6.580;2023-02-14T10:40:02;103123.47;;;9.47;91.05
60307;BME280;46155;52.364;6.580;2023-02-14T10:43:18;103129.94;;;9.59;90.45
60307;BME280;46155;52.364;6.580;2023-02-14T10:45:30;103130.88;;;9.69;89.35
60307;BME280;46155;52.364;6.580;2023-02-14T10:48:20;103123.47;;;9.73;90.27
60307;BME280;46155;52.364;6.580;2023-02-14T10:51:10;103126.25;;;9.75;89.60
60307;BME280;46155;52.364;6.580;2023-02-14T10:56:25;103127.66;;;9.97;89.21
60307;BME280;46155;52.364;6.580;2023-02-14T10:58:52;103125.78;;;9.96;88.45
60307;BME280;46155;52.364;6.580;2023-02-14T11:01:21;103127.19;;;10.02;88.91
60307;BME280;46155;52.364;6.580;2023-02-14T11:03:55;103122.72;;;10.09;88.83
60307;BME280;46155;52.364;6.580;2023-02-14T11:06:22;103115.44;;;10.15;89.39
60307;BME280;46155;52.364;6.580;2023-02-14T11:08:48;103110.19;;;10.24;88.29
60307;BME280;46155;52.364;6.580;2023-02-14T11:11:22;103115.09;;;10.30;88.18
60307;BME280;46155;52.364;6.580;2023-02-14T11:13:49;103113.75;;;10.42;88.20
60307;BME280;46155;52.364;6.580;2023-02-14T11:16:39;103110.50;;;10.45;87.31
60307;BME280;46155;52.364;6.580;2023-02-14T11:21:40;103097.94;;;10.51;88.64
60307;BME280;46155;52.364;6.580;2023-02-14T11:26:55;103094.72;;;10.54;87.39
60307;BME280;46155;52.364;6.580;2023-02-14T11:29:35;103093.09;;;10.64;86.82
60307;BME280;46155;52.364;6.580;2023-02-14T11:32:14;103088.19;;;10.67;86.66
60307;BME280;46155;52.364;6.580;2023-02-14T11:34:44;103092.75;;;10.79;85.73
60307;BME280;46155;52.364;6.580;2023-02-14T11:37:43;103095.78;;;10.92;86.02
60307;BME280;46155;52.364;6.580;2023-02-14T11:40:25;103094.22;;;10.94;87.75
60307;BME280;46155;52.364;6.580;2023-02-14T11:42:51;103089.56;;;11.00;86.90
60307;BME280;46155;52.364;6.580;2023-02-14T11:48:15;103085.28;;;11.20;83.96
60307;BME280;46155;52.364;6.580;2023-02-14T11:50:42;103080.78;;;11.19;84.99
60307;BME280;46155;52.364;6.580;2023-02-14T11:53:19;103077.69;;;11.23;84.42
60307;BME280;46155;52.364;6.580;2023-02-14T11:55:52;103059.41;;;11.25;83.73
60307;BME280;46155;52.364;6.580;2023-02-14T12:01:34;103055.47;;;11.39;83.15
60307;BME280;46155;52.364;6.580;2023-02-14T12:04:15;103058.09;;;11.39;81.59
60307;BME280;46155;52.364;6.580;2023-02-14T12:06:41;103059.63;;;11.36;81.08
60307;BME280;46155;52.364;6.580;2023-02-14T12:09:24;103057.22;;;11.29;82.21
60307;BME280;46155;52.364;6.580;2023-02-14T12:12:01;103044.13;;;11.40;83.52
60307;BME280;46155;52.364;6.580;2023-02-14T12:14:31;103044.44;;;11.43;83.45
60307;BME280;46155;52.364;6.580;2023-02-14T12:17:05;103034.34;;;11.47;81.83
60307;BME280;46155;52.364;6.580;2023-02-14T12:19:56;103038.03;;;11.49;83.29
60307;BME280;46155;52.364;6.580;2023-02-14T12:22:29;103039.59;;;11.47;81.71
60307;BME280;46155;52.364;6.580;2023-02-14T12:25:24;103028.50;;;11.22;83.65
60307;BME280;46155;52.364;6.580;2023-02-14T12:27:56;103028.16;;;11.28;83.02
60307;BME280;46155;52.364;6.580;2023-02-14T12:30:31;103026.00;;;11.24;82.88
60307;BME280;46155;52.364;6.580;2023-02-14T12:32:56;103019.63;;;11.30;83.39
60307;BME280;46155;52.364;6.580;2023-02-14T12:41:02;103005.22;;;11.35;83.07
60307;BME280;46155;52.364;6.580;2023-02-14T12:43:47;103001.69;;;11.45;82.55
60307;BME280;46155;52.364;6.580;2023-02-14T12:46:26;102990.25;;;11.45;83.21
60307;BME280;46155;52.364;6.580;2023-02-14T12:57:07;102978.56;;;11.41;82.56
60307;BME280;46155;52.364;6.580;2023-02-14T13:05:20;102967.44;;;11.35;83.71
60307;BME280;46155;52.364;6.580;2023-02-14T13:08:07;102965.72;;;11.54;83.82
60307;BME280;46155;52.364;6.580;2023-02-14T13:13:26;102956.56;;;11.41;82.62
60307;BME280;46155;52.364;6.580;2023-02-14T13:15:58;102949.75;;;11.43;84.04
60307;BME280;46155;52.364;6.580;2023-02-14T13:18:56;102955.03;;;11.43;83.00
60307;BME280;46155;52.364;6.580;2023-02-14T13:21:30;102955.03;;;11.43;82.49
60307;BME280;46155;52.364;6.580;2023-02-14T13:24:19;102949.03;;;11.35;82.74
60307;BME280;46155;52.364;6.580;2023-02-14T13:26:48;102947.34;;;11.35;82.20
60307;BME280;46155;52.364;6.580;2023-02-14T13:29:20;102949.25;;;11.28;82.48
60307;BME280;46155;52.364;6.580;2023-02-14T13:31:48;102939.81;;;11.30;82.20
60307;BME280;46155;52.364;6.580;2023-02-14T13:34:24;102938.38;;;11.33;81.44
60307;BME280;46155;52.364;6.580;2023-02-14T13:36:53;102944.19;;;11.40;82.22
60307;BME280;46155;52.364;6.580;2023-02-14T13:39:32;102934.47;;;11.39;81.22
60307;BME280;46155;52.364;6.580;2023-02-14T13:41:58;102941.28;;;11.36;81.55
60307;BME280;46155;52.364;6.580;2023-02-14T13:44:47;102922.88;;;11.36;82.06
60307;BME280;46155;52.364;6.580;2023-02-14T13:47:23;102920.34;;;11.28;82.67
60307;BME280;46155;52.364;6.580;2023-02-14T13:49:55;102927.09;;;11.34;83.09
60307;BME280;46155;52.364;6.580;2023-02-14T13:52:46;102927.22;;;11.36;83.99
60307;BME280;46155;52.364;6.580;2023-02-14T13:55:17;102931.22;;;11.41;84.16
60307;BME280;46155;52.364;6.580;2023-02-14T13:57:44;102921.59;;;11.42;83.89
60307;BME280;46155;52.364;6.580;2023-02-14T14:00:27;102921.31;;;11.39;83.10
60307;BME280;46155;52.364;6.580;2023-02-14T14:02:59;102917.88;;;11.40;82.58
60307;BME280;46155;52.364;6.580;2023-02-14T14:10:47;102909.13;;;11.49;82.55
60307;BME280;46155;52.364;6.580;2023-02-14T14:18:48;102910.06;;;11.50;81.85
60307;BME280;46155;52.364;6.580;2023-02-14T14:21:20;102907.59;;;11.51;81.11
60307;BME280;46155;52.364;6.580;2023-02-14T14:29:21;102900.56;;;11.42;80.86
60307;BME280;46155;52.364;6.580;2023-02-14T14:31:48;102906.09;;;11.45;80.81
60307;BME280;46155;52.364;6.580;2023-02-14T14:34:20;102904.47;;;11.36;81.06
60307;BME280;46155;52.364;6.580;2023-02-14T14:36:46;102902.28;;;11.41;80.14
60307;BME280;46155;52.364;6.580;2023-02-14T14:39:28;102902.41;;;11.43;79.37
60307;BME280;46155;52.364;6.580;2023-02-14T14:41:55;102901.47;;;11.42;79.15
60307;BME280;46155;52.364;6.580;2023-02-14T14:44:20;102893.72;;;11.44;79.18
60307;BME280;46155;52.364;6.580;2023-02-14T14:46:47;102890.69;;;11.39;79.60
60307;BME280;46155;52.364;6.580;2023-02-14T14:49:15;102898.75;;;11.51;79.59
60307;BME280;46155;52.364;6.580;2023-02-14T14:51:41;102895.06;;;11.49;79.41
60307;BME280;46155;52.364;6.580;2023-02-14T14:54:16;102881.91;;;11.49;79.12
60307;BME280;46155;52.364;6.580;2023-02-14T14:57:04;102881.66;;;11.46;79.00
60307;BME280;46155;52.364;6.580;2023-02-14T14:59:32;102883.19;;;11.44;79.54
60307;BME280;46155;52.364;6.580;2023-02-14T15:02:00;102886.34;;;11.40;79.94
60307;BME280;46155;52.364;6.580;2023-02-14T15:04:33;102887.00;;;11.37;80.04
60307;BME280;46155;52.364;6.580;2023-02-14T15:07:30;102876.34;;;11.35;80.62
60307;BME280;46155;52.364;6.580;2023-02-14T15:09:57;102877.91;;;11.33;80.21
60307;BME280;46155;52.364;6.580;2023-02-14T15:12:23;102867.38;;;11.33;80.37
60307;BME280;46155;52.364;6.580;2023-02-14T15:15:13;102865.03;;;11.36;80.65
60307;BME280;46155;52.364;6.580;2023-02-14T15:17:40;102862.63;;;11.29;80.53
60307;BME280;46155;52.364;6.580;2023-02-14T15:20:18;102867.09;;;11.30;80.60
60307;BME280;46155;52.364;6.580;2023-02-14T15:22:47;102862.91;;;11.32;79.82
60307;BME280;46155;52.364;6.580;2023-02-14T15:25:22;102860.00;;;11.29;79.71
60307;BME280;46155;52.364;6.580;2023-02-14T15:27:50;102866.03;;;11.28;79.79
60307;BME280;46155;52.364;6.580;2023-02-14T15:32:45;102860.84;;;11.19;79.53
60307;BME280;46155;52.364;6.580;2023-02-14T15:35:13;102853.47;;;11.15;79.29
60307;BME280;46155;52.364;6.580;2023-02-14T15:37:41;102851.50;;;11.13;79.95
60307;BME280;46155;52.364;6.580;2023-02-14T15:40:07;102854.91;;;11.12;79.15
60307;BME280;46155;52.364;6.580;2023-02-14T15:42:42;102858.31;;;11.11;79.17
60307;BME280;46155;52.364;6.580;2023-02-14T15:47:58;102850.44;;;11.11;79.37
60307;BME280;46155;52.364;6.580;2023-02-14T15:50:30;102858.81;;;11.07;79.72
60307;BME280;46155;52.364;6.580;2023-02-14T15:55:43;102854.56;;;10.98;81.07
60307;BME280;46155;52.364;6.580;2023-02-14T15:58:28;102852.16;;;10.91;81.39
60307;BME280;46155;52.364;6.580;2023-02-14T16:00:56;102849.09;;;10.87;81.42
60307;BME280;46155;52.364;6.580;2023-02-14T16:03:25;102849.75;;;10.84;81.33
60307;BME280;46155;52.364;6.580;2023-02-14T16:05:52;102845.78;;;10.79;81.63
60307;BME280;46155;52.364;6.580;2023-02-14T16:08:33;102848.59;;;10.72;82.44
60307;BME280;46155;52.364;6.580;2023-02-14T16:11:12;102848.19;;;10.67;82.84
60307;BME280;46155;52.364;6.580;2023-02-14T16:13:41;102850.25;;;10.61;82.75
60307;BME280;46155;52.364;6.580;2023-02-14T16:16:08;102847.97;;;10.55;83.39
60307;BME280;46155;52.364;6.580;2023-02-14T16:21:24;102845.41;;;10.46;85.29
60307;BME280;46155;52.364;6.580;2023-02-14T16:26:42;102846.69;;;10.32;84.56
60307;BME280;46155;52.364;6.580;2023-02-14T16:29:09;102843.78;;;10.29;85.13
60307;BME280;46155;52.364;6.580;2023-02-14T16:31:39;102844.28;;;10.25;85.31
60307;BME280;46155;52.364;6.580;2023-02-14T16:34:09;102831.34;;;10.18;85.43
60307;BME280;46155;52.364;6.580;2023-02-14T16:36:36;102848.81;;;10.09;85.28
60307;BME280;46155;52.364;6.580;2023-02-14T16:39:02;102849.63;;;9.99;85.74
60307;BME280;46155;52.364;6.580;2023-02-14T16:41:29;102846.78;;;9.87;85.78
60307;BME280;46155;52.364;6.580;2023-02-14T16:43:55;102845.59;;;9.75;85.78
60307;BME280;46155;52.364;6.580;2023-02-14T16:46:24;102851.34;;;9.62;86.13
60307;BME280;46155;52.364;6.580;2023-02-14T16:48:50;102845.69;;;9.48;86.54
60307;BME280;46155;52.364;6.580;2023-02-14T16:51:20;102848.00;;;9.37;86.36
60307;BME280;46155;52.364;6.580;2023-02-14T16:53:46;102852.81;;;9.23;87.01
60307;BME280;46155;52.364;6.580;2023-02-14T16:56:16;102849.94;;;9.11;87.52
60307;BME280;46155;52.364;6.580;2023-02-14T16:58:44;102853.00;;;8.99;87.94
60307;BME280;46155;52.364;6.580;2023-02-14T17:01:10;102852.53;;;8.85;88.30
60307;BME280;46155;52.364;6.580;2023-02-14T17:03:35;102841.94;;;8.75;88.75
60307;BME280;46155;52.364;6.580;2023-02-14T17:06:01;102845.31;;;8.65;88.97
60307;BME280;46155;52.364;6.580;2023-02-14T17:08:27;102857.59;;;8.57;88.96
60307;BME280;46155;52.364;6.580;2023-02-14T17:10:53;102849.59;;;8.47;90.05
60307;BME280;46155;52.364;6.580;2023-02-14T17:13:24;102854.53;;;8.53;94.06
60307;BME280;46155;52.364;6.580;2023-02-14T17:15:50;102857.59;;;8.49;90.02
60307;BME280;46155;52.364;6.580;2023-02-14T17:18:19;102858.31;;;8.39;89.62
60307;BME280;46155;52.364;6.580;2023-02-14T17:20:46;102866.44;;;8.33;89.03
60307;BME280;46155;52.364;6.580;2023-02-14T17:23:12;102868.91;;;8.23;89.11
60307;BME280;46155;52.364;6.580;2023-02-14T17:25:38;102859.63;;;8.09;89.74
60307;BME280;46155;52.364;6.580;2023-02-14T17:28:03;102860.84;;;8.04;91.11
60307;BME280;46155;52.364;6.580;2023-02-14T17:30:29;102865.41;;;7.98;90.39
60307;BME280;46155;52.364;6.580;2023-02-14T17:32:55;102853.06;;;7.88;91.35
60307;BME280;46155;52.364;6.580;2023-02-14T17:35:20;102850.44;;;7.79;92.01
60307;BME280;46155;52.364;6.580;2023-02-14T17:37:45;102854.59;;;7.77;91.94
60307;BME280;46155;52.364;6.580;2023-02-14T17:40:11;102856.69;;;7.72;92.02
60307;BME280;46155;52.364;6.580;2023-02-14T17:42:38;102847.47;;;7.67;92.54
60307;BME280;46155;52.364;6.580;2023-02-14T17:45:05;102846.34;;;7.65;93.58
60307;BME280;46155;52.364;6.580;2023-02-14T17:47:31;102851.44;;;7.64;93.80
60307;BME280;46155;52.364;6.580;2023-02-14T17:49:56;102842.66;;;7.63;93.64
60307;BME280;46155;52.364;6.580;2023-02-14T17:52:22;102851.88;;;7.59;93.42
60307;BME280;46155;52.364;6.580;2023-02-14T17:54:48;102858.16;;;7.53;93.42
60307;BME280;46155;52.364;6.580;2023-02-14T17:57:14;102853.84;;;7.53;93.07
60307;BME280;46155;52.364;6.580;2023-02-14T17:59:39;102849.22;;;7.51;92.95
60307;BME280;46155;52.364;6.580;2023-02-14T18:02:06;102850.06;;;7.43;93.21
60307;BME280;46155;52.364;6.580;2023-02-14T18:04:33;102850.88;;;7.41;93.56
60307;BME280;46155;52.364;6.580;2023-02-14T18:07:00;102853.75;;;7.36;92.98
60307;BME280;46155;52.364;6.580;2023-02-14T18:09:26;102858.63;;;7.33;93.27
60307;BME280;46155;52.364;6.580;2023-02-14T18:11:51;102857.38;;;7.29;93.06
60307;BME280;46155;52.364;6.580;2023-02-14T18:14:17;102862.28;;;7.26;nan
60307;BME280;46155;52.364;6.580;2023-02-14T18:16:43;102851.94;;;7.19;92.94
60307;BME280;46155;52.364;6.580;2023-02-14T18:19:08;102848.06;;;7.15;92.25
60307;BME280;46155;52.364;6.580;2023-02-14T18:21:35;102842.47;;;7.03;92.27
60307;BME280;46155;52.364;6.580;2023-02-14T18:24:02;102842.41;;;6.95;92.79
60307;BME280;46155;52.364;6.580;2023-02-14T18:26:28;102844.75;;;6.84;94.11